sensor_id;sensor_type;location;lat;lon;timestamp;temperature;humidity
51567;DHT22;37657;53.182;5.638;2023-04-06T00:01:02;2.20;99.90
51567;DHT22;37657;53.182;5.638;2023-04-06T00:03:28;2.20;99.90
51567;DHT22;37657;53.182;5.638;2023-04-06T00:05:53;2.30;99.90
51567;DHT22;37657;53.182;5.638;2023-04-06T00:08:19;2.30;99.90
51567;DHT22;37657;53.182;5.638;2023-04-06T00:10:46;2.30;99.90
51567;DHT22;37657;53.182;5.638;2023-04-06T00:13:12;2.30;99.90
51567;DHT22;37657;53.182;5.638;2023-04-06T00:15:37;2.30;99.90
51567;DHT22;37657;53.182;5.638;2023-04-06T00:18:03;2.30;99.90
51567;DHT22;37657;53.182;5.638;2023-04-06T00:20:29;2.20;99.90
51567;DHT22;37657;53.182;5.638;2023-04-06T00:22:54;2.20;99.90
51567;DHT22;37657;53.182;5.638;2023-04-06T00:25:20;2.20;99.90
51567;DHT22;37657;53.182;5.638;2023-04-06T00:27:45;2.20;99.90
51567;DHT22;37657;53.182;5.638;2023-04-06T00:30:11;2.10;99.90
51567;DHT22;37657;53.182;5.638;2023-04-06T00:32:37;2.10;99.90
51567;DHT22;37657;53.182;5.638;2023-04-06T00:35:06;2.10;99.90
51567;DHT22;37657;53.182;5.638;2023-04-06T00:37:31;2.10;99.90
51567;DHT22;37657;53.182;5.638;2023-04-06T00:39:57;2.00;99.90
51567;DHT22;37657;53.182;5.638;2023-04-06T00:42:24;2.00;99.90
51567;DHT22;37657;53.182;5.638;2023-04-06T00:44:56;2.00;99.90
51567;DHT22;37657;53.182;5.638;2023-04-06T00:47:23;1.80;99.90
51567;DHT22;37657;53.182;5.638;2023-04-06T00:49:50;1.80;99.90
51567;DHT22;37657;53.182;5.638;2023-04-06T00:52:17;1.80;99.90
51567;DHT22;37657;53.182;5.638;2023-04-06T00:54:43;1.70;99.90
51567;DHT22;37657;53.182;5.638;2023-04-06T00:57:08;1.70;99.90
51567;DHT22;37657;53.182;5.638;2023-04-06T00:59:34;1.70;99.90
51567;DHT22;37657;53.182;5.638;2023-04-06T01:02:00;1.70;99.90
51567;DHT22;37657;53.182;5.638;2023-04-06T01:04:26;1.70;99.90
51567;DHT22;37657;53.182;5.638;2023-04-06T01:06:52;1.70;99.90
51567;DHT22;37657;53.182;5.638;2023-04-06T01:09:17;1.70;99.90
51567;DHT22;37657;53.182;5.638;2023-04-06T01:11:43;1.70;99.90
51567;DHT22;37657;53.182;5.638;2023-04-06T01:14:09;1.70;99.90
51567;DHT22;37657;53.182;5.638;2023-04-06T01:16:35;1.70;99.90
51567;DHT22;37657;53.182;5.638;2023-04-06T01:19:06;1.70;99.90
51567;DHT22;37657;53.182;5.638;2023-04-06T01:21:31;1.70;99.90
51567;DHT22;37657;53.182;5.638;2023-04-06T01:23:57;1.80;99.90
51567;DHT22;37657;53.182;5.638;2023-04-06T01:26:22;1.80;99.90
51567;DHT22;37657;53.182;5.638;2023-04-06T01:28:48;1.80;99.90
51567;DHT22;37657;53.182;5.638;2023-04-06T01:31:14;1.80;99.90
51567;DHT22;37657;53.182;5.638;2023-04-06T01:33:39;1.70;99.90
51567;DHT22;37657;53.182;5.638;2023-04-06T01:36:05;1.80;99.90
51567;DHT22;37657;53.182;5.638;2023-04-06T01:38:31;1.70;99.90
51567;DHT22;37657;53.182;5.638;2023-04-06T01:40:56;1.70;99.90
51567;DHT22;37657;53.182;5.638;2023-04-06T01:43:22;1.60;99.90
51567;DHT22;37657;53.182;5.638;2023-04-06T01:45:48;1.50;99.90
51567;DHT22;37657;53.182;5.638;2023-04-06T01:48:13;1.50;99.90
51567;DHT22;37657;53.182;5.638;2023-04-06T01:50:39;1.50;99.90
51567;DHT22;37657;53.182;5.638;2023-04-06T01:53:05;1.50;99.90
51567;DHT22;37657;53.182;5.638;2023-04-06T01:55:30;1.40;99.90
51567;DHT22;37657;53.182;5.638;2023-04-06T01:57:56;1.30;99.90
51567;DHT22;37657;53.182;5.638;2023-04-06T02:00:21;1.30;99.90
51567;DHT22;37657;53.182;5.638;2023-04-06T02:02:47;1.30;99.90
51567;DHT22;37657;53.182;5.638;2023-04-06T02:05:13;1.20;99.90
51567;DHT22;37657;53.182;5.638;2023-04-06T02:07:38;1.20;99.90
51567;DHT22;37657;53.182;5.638;2023-04-06T02:10:04;1.10;99.90
51567;DHT22;37657;53.182;5.638;2023-04-06T02:12:36;1.20;99.90
51567;DHT22;37657;53.182;5.638;2023-04-06T02:15:01;1.10;99.90
51567;DHT22;37657;53.182;5.638;2023-04-06T02:17:27;1.10;99.90
51567;DHT22;37657;53.182;5.638;2023-04-06T02:19:52;1.10;99.90
51567;DHT22;37657;53.182;5.638;2023-04-06T02:22:18;1.10;99.90
51567;DHT22;37657;53.182;5.638;2023-04-06T02:24:43;1.10;99.90
51567;DHT22;37657;53.182;5.638;2023-04-06T02:27:09;1.20;99.90
51567;DHT22;37657;53.182;5.638;2023-04-06T02:29:34;1.20;99.90
51567;DHT22;37657;53.182;5.638;2023-04-06T02:32:00;1.20;99.90
51567;DHT22;37657;53.182;5.638;2023-04-06T02:34:26;1.10;99.90
51567;DHT22;37657;53.182;5.638;2023-04-06T02:36:51;1.10;99.90
51567;DHT22;37657;53.182;5.638;2023-04-06T02:39:17;1.10;99.90
51567;DHT22;37657;53.182;5.638;2023-04-06T02:41:42;1.00;99.90
51567;DHT22;37657;53.182;5.638;2023-04-06T02:44:08;1.00;99.90
51567;DHT22;37657;53.182;5.638;2023-04-06T02:46:34;1.00;99.90
51567;DHT22;37657;53.182;5.638;2023-04-06T02:49:00;0.90;99.90
51567;DHT22;37657;53.182;5.638;2023-04-06T02:51:26;1.00;99.90
51567;DHT22;37657;53.182;5.638;2023-04-06T02:53:52;1.00;99.90
51567;DHT22;37657;53.182;5.638;2023-04-06T02:56:17;1.00;99.90
51567;DHT22;37657;53.182;5.638;2023-04-06T02:58:43;1.00;99.90
51567;DHT22;37657;53.182;5.638;2023-04-06T03:01:09;1.00;99.90
51567;DHT22;37657;53.182;5.638;2023-04-06T03:03:34;1.00;99.90
51567;DHT22;37657;53.182;5.638;2023-04-06T03:06:00;1.00;99.90
51567;DHT22;37657;53.182;5.638;2023-04-06T03:08:25;1.10;99.90
51567;DHT22;37657;53.182;5.638;2023-04-06T03:10:51;1.10;99.90
51567;DHT22;37657;53.182;5.638;2023-04-06T03:13:16;1.10;99.90
51567;DHT22;37657;53.182;5.638;2023-04-06T03:15:42;1.20;99.90
51567;DHT22;37657;53.182;5.638;2023-04-06T03:18:07;1.20;99.90
51567;DHT22;37657;53.182;5.638;2023-04-06T03:20:33;1.20;99.90
51567;DHT22;37657;53.182;5.638;2023-04-06T03:22:59;1.20;99.90
51567;DHT22;37657;53.182;5.638;2023-04-06T03:25:25;1.20;99.90
51567;DHT22;37657;53.182;5.638;2023-04-06T03:27:50;1.30;99.90
51567;DHT22;37657;53.182;5.638;2023-04-06T03:30:16;1.20;99.90
51567;DHT22;37657;53.182;5.638;2023-04-06T03:32:44;1.20;99.90
51567;DHT22;37657;53.182;5.638;2023-04-06T03:35:10;1.10;99.90
51567;DHT22;37657;53.182;5.638;2023-04-06T03:37:36;1.20;99.90
51567;DHT22;37657;53.182;5.638;2023-04-06T03:40:02;1.20;99.90
51567;DHT22;37657;53.182;5.638;2023-04-06T03:42:28;1.10;99.90
51567;DHT22;37657;53.182;5.638;2023-04-06T03:44:53;1.20;99.90
51567;DHT22;37657;53.182;5.638;2023-04-06T03:47:19;1.20;99.90
51567;DHT22;37657;53.182;5.638;2023-04-06T03:49:45;1.20;99.90
51567;DHT22;37657;53.182;5.638;2023-04-06T03:52:10;1.20;99.90
51567;DHT22;37657;53.182;5.638;2023-04-06T03:54:36;1.30;99.90
51567;DHT22;37657;53.182;5.638;2023-04-06T03:57:02;1.30;99.90
51567;DHT22;37657;53.182;5.638;2023-04-06T03:59:28;1.30;99.90
51567;DHT22;37657;53.182;5.638;2023-04-06T04:01:53;1.30;99.90
51567;DHT22;37657;53.182;5.638;2023-04-06T04:04:19;1.40;99.90
51567;DHT22;37657;53.182;5.638;2023-04-06T04:06:45;1.40;99.90
51567;DHT22;37657;53.182;5.638;2023-04-06T04:09:10;1.40;99.90
51567;DHT22;37657;53.182;5.638;2023-04-06T04:11:36;1.40;99.90
51567;DHT22;37657;53.182;5.638;2023-04-06T04:14:01;1.40;99.90
51567;DHT22;37657;53.182;5.638;2023-04-06T04:16:27;1.40;99.90
51567;DHT22;37657;53.182;5.638;2023-04-06T04:18:52;1.40;99.90
51567;DHT22;37657;53.182;5.638;2023-04-06T04:21:18;1.40;99.90
51567;DHT22;37657;53.182;5.638;2023-04-06T04:23:43;1.40;99.90
51567;DHT22;37657;53.182;5.638;2023-04-06T04:26:09;1.50;99.90
51567;DHT22;37657;53.182;5.638;2023-04-06T04:28:35;1.50;99.90
51567;DHT22;37657;53.182;5.638;2023-04-06T04:31:00;1.40;99.90
51567;DHT22;37657;53.182;5.638;2023-04-06T04:33:26;1.50;99.90
51567;DHT22;37657;53.182;5.638;2023-04-06T04:35:51;1.50;99.90
51567;DHT22;37657;53.182;5.638;2023-04-06T04:38:17;1.50;99.90
51567;DHT22;37657;53.182;5.638;2023-04-06T04:40:43;1.60;99.90
51567;DHT22;37657;53.182;5.638;2023-04-06T04:43:08;1.70;99.90
51567;DHT22;37657;53.182;5.638;2023-04-06T04:45:34;1.70;99.90
51567;DHT22;37657;53.182;5.638;2023-04-06T04:48:00;1.70;99.90
51567;DHT22;37657;53.182;5.638;2023-04-06T04:50:25;1.70;99.90
51567;DHT22;37657;53.182;5.638;2023-04-06T04:52:51;1.80;99.90
51567;DHT22;37657;53.182;5.638;2023-04-06T04:55:17;1.80;99.90
51567;DHT22;37657;53.182;5.638;2023-04-06T04:57:43;1.90;99.90
51567;DHT22;37657;53.182;5.638;2023-04-06T05:00:09;1.90;99.90
51567;DHT22;37657;53.182;5.638;2023-04-06T05:02:34;1.90;99.90
51567;DHT22;37657;53.182;5.638;2023-04-06T05:05:00;1.90;99.90
51567;DHT22;37657;53.182;5.638;2023-04-06T05:07:26;1.90;99.90
51567;DHT22;37657;53.182;5.638;2023-04-06T05:09:52;1.80;99.90
51567;DHT22;37657;53.182;5.638;2023-04-06T05:12:18;1.80;99.90
51567;DHT22;37657;53.182;5.638;2023-04-06T05:14:44;1.90;99.90
51567;DHT22;37657;53.182;5.638;2023-04-06T05:17:09;1.80;99.90
51567;DHT22;37657;53.182;5.638;2023-04-06T05:19:35;1.80;99.90
51567;DHT22;37657;53.182;5.638;2023-04-06T05:22:01;1.80;99.90
51567;DHT22;37657;53.182;5.638;2023-04-06T05:24:26;1.90;99.90
51567;DHT22;37657;53.182;5.638;2023-04-06T05:26:52;1.90;99.90
51567;DHT22;37657;53.182;5.638;2023-04-06T05:29:18;1.90;99.90
51567;DHT22;37657;53.182;5.638;2023-04-06T05:31:45;1.90;99.90
51567;DHT22;37657;53.182;5.638;2023-04-06T05:34:11;2.00;99.90
51567;DHT22;37657;53.182;5.638;2023-04-06T05:36:38;2.00;99.90
51567;DHT22;37657;53.182;5.638;2023-04-06T05:39:03;2.10;99.90
51567;DHT22;37657;53.182;5.638;2023-04-06T05:41:29;2.20;99.90
51567;DHT22;37657;53.182;5.638;2023-04-06T05:43:54;2.40;99.90
51567;DHT22;37657;53.182;5.638;2023-04-06T05:46:20;2.50;99.90
51567;DHT22;37657;53.182;5.638;2023-04-06T05:48:46;2.70;99.90
51567;DHT22;37657;53.182;5.638;2023-04-06T05:51:12;2.70;99.90
51567;DHT22;37657;53.182;5.638;2023-04-06T05:53:37;2.80;99.90
51567;DHT22;37657;53.182;5.638;2023-04-06T05:56:03;2.90;99.90
51567;DHT22;37657;53.182;5.638;2023-04-06T05:58:29;2.90;99.90
51567;DHT22;37657;53.182;5.638;2023-04-06T06:00:58;3.00;99.90
51567;DHT22;37657;53.182;5.638;2023-04-06T06:03:24;3.10;99.90
51567;DHT22;37657;53.182;5.638;2023-04-06T06:05:50;3.30;99.90
51567;DHT22;37657;53.182;5.638;2023-04-06T06:08:15;3.50;99.90
51567;DHT22;37657;53.182;5.638;2023-04-06T06:10:41;3.60;99.90
51567;DHT22;37657;53.182;5.638;2023-04-06T06:13:07;3.80;99.90
51567;DHT22;37657;53.182;5.638;2023-04-06T06:15:32;4.00;99.90
51567;DHT22;37657;53.182;5.638;2023-04-06T06:17:58;4.10;99.90
51567;DHT22;37657;53.182;5.638;2023-04-06T06:20:23;4.30;99.90
51567;DHT22;37657;53.182;5.638;2023-04-06T06:22:49;4.30;99.90
51567;DHT22;37657;53.182;5.638;2023-04-06T06:25:15;4.40;99.90
51567;DHT22;37657;53.182;5.638;2023-04-06T06:27:41;4.40;99.90
51567;DHT22;37657;53.182;5.638;2023-04-06T06:30:07;4.50;99.90
51567;DHT22;37657;53.182;5.638;2023-04-06T06:32:33;4.50;99.90
51567;DHT22;37657;53.182;5.638;2023-04-06T06:34:58;4.60;99.90
51567;DHT22;37657;53.182;5.638;2023-04-06T06:37:24;4.70;99.90
51567;DHT22;37657;53.182;5.638;2023-04-06T06:39:50;4.80;99.90
51567;DHT22;37657;53.182;5.638;2023-04-06T06:42:15;5.00;99.90
51567;DHT22;37657;53.182;5.638;2023-04-06T06:44:41;5.20;99.90
51567;DHT22;37657;53.182;5.638;2023-04-06T06:47:06;5.40;99.90
51567;DHT22;37657;53.182;5.638;2023-04-06T06:49:32;5.50;99.90
51567;DHT22;37657;53.182;5.638;2023-04-06T06:51:57;5.50;99.90
51567;DHT22;37657;53.182;5.638;2023-04-06T06:54:23;5.60;99.90
51567;DHT22;37657;53.182;5.638;2023-04-06T06:56:48;5.60;99.90
51567;DHT22;37657;53.182;5.638;2023-04-06T06:59:14;5.60;99.90
51567;DHT22;37657;53.182;5.638;2023-04-06T07:01:41;5.60;99.90
51567;DHT22;37657;53.182;5.638;2023-04-06T07:04:07;5.60;99.90
51567;DHT22;37657;53.182;5.638;2023-04-06T07:06:35;5.70;99.90
51567;DHT22;37657;53.182;5.638;2023-04-06T07:09:01;5.80;99.90
51567;DHT22;37657;53.182;5.638;2023-04-06T07:11:28;5.80;99.90
51567;DHT22;37657;53.182;5.638;2023-04-06T07:13:54;5.80;99.90
51567;DHT22;37657;53.182;5.638;2023-04-06T07:16:20;5.90;99.90
51567;DHT22;37657;53.182;5.638;2023-04-06T07:18:46;5.90;99.90
51567;DHT22;37657;53.182;5.638;2023-04-06T07:21:11;6.00;99.90
51567;DHT22;37657;53.182;5.638;2023-04-06T07:23:37;6.10;99.90
51567;DHT22;37657;53.182;5.638;2023-04-06T07:26:03;6.30;99.90
51567;DHT22;37657;53.182;5.638;2023-04-06T07:28:28;6.40;99.90
51567;DHT22;37657;53.182;5.638;2023-04-06T07:30:54;6.60;99.90
51567;DHT22;37657;53.182;5.638;2023-04-06T07:33:20;6.70;99.90
51567;DHT22;37657;53.182;5.638;2023-04-06T07:35:46;6.80;99.90
51567;DHT22;37657;53.182;5.638;2023-04-06T07:38:11;6.90;99.90
51567;DHT22;37657;53.182;5.638;2023-04-06T07:40:37;7.00;99.90
51567;DHT22;37657;53.182;5.638;2023-04-06T07:43:03;7.20;99.90
51567;DHT22;37657;53.182;5.638;2023-04-06T07:45:29;7.40;99.90
51567;DHT22;37657;53.182;5.638;2023-04-06T07:47:55;7.70;99.90
51567;DHT22;37657;53.182;5.638;2023-04-06T07:50:21;8.00;99.90
51567;DHT22;37657;53.182;5.638;2023-04-06T07:52:46;8.20;99.90
51567;DHT22;37657;53.182;5.638;2023-04-06T07:55:12;8.30;99.90
51567;DHT22;37657;53.182;5.638;2023-04-06T07:57:37;8.40;99.90
51567;DHT22;37657;53.182;5.638;2023-04-06T08:00:03;8.60;99.90
51567;DHT22;37657;53.182;5.638;2023-04-06T08:02:31;8.60;99.90
51567;DHT22;37657;53.182;5.638;2023-04-06T08:04:56;8.70;99.90
51567;DHT22;37657;53.182;5.638;2023-04-06T08:07:22;8.80;99.90
51567;DHT22;37657;53.182;5.638;2023-04-06T08:09:48;8.90;99.90
51567;DHT22;37657;53.182;5.638;2023-04-06T08:12:14;9.00;99.90
51567;DHT22;37657;53.182;5.638;2023-04-06T08:14:39;9.00;99.90
51567;DHT22;37657;53.182;5.638;2023-04-06T08:17:05;9.10;99.90
51567;DHT22;37657;53.182;5.638;2023-04-06T08:19:31;9.20;99.90
51567;DHT22;37657;53.182;5.638;2023-04-06T08:21:56;9.10;99.90
51567;DHT22;37657;53.182;5.638;2023-04-06T08:24:22;9.10;99.90
51567;DHT22;37657;53.182;5.638;2023-04-06T08:26:47;9.10;99.90
51567;DHT22;37657;53.182;5.638;2023-04-06T08:29:13;9.10;99.90
51567;DHT22;37657;53.182;5.638;2023-04-06T08:31:38;9.00;99.90
51567;DHT22;37657;53.182;5.638;2023-04-06T08:34:04;9.00;99.90
51567;DHT22;37657;53.182;5.638;2023-04-06T08:36:30;9.00;99.90
51567;DHT22;37657;53.182;5.638;2023-04-06T08:38:56;9.10;99.90
51567;DHT22;37657;53.182;5.638;2023-04-06T08:41:22;9.20;99.90
51567;DHT22;37657;53.182;5.638;2023-04-06T08:43:59;9.30;99.90
51567;DHT22;37657;53.182;5.638;2023-04-06T08:46:25;9.40;99.90
51567;DHT22;37657;53.182;5.638;2023-04-06T08:49:01;9.50;99.90
51567;DHT22;37657;53.182;5.638;2023-04-06T08:51:29;9.60;99.90
51567;DHT22;37657;53.182;5.638;2023-04-06T08:53:57;9.60;99.90
51567;DHT22;37657;53.182;5.638;2023-04-06T08:56:24;9.60;99.90
51567;DHT22;37657;53.182;5.638;2023-04-06T08:58:49;9.70;99.90
51567;DHT22;37657;53.182;5.638;2023-04-06T09:01:17;9.70;99.90
51567;DHT22;37657;53.182;5.638;2023-04-06T09:03:46;9.70;99.90
51567;DHT22;37657;53.182;5.638;2023-04-06T09:06:13;9.80;99.90
51567;DHT22;37657;53.182;5.638;2023-04-06T09:08:40;9.90;99.90
51567;DHT22;37657;53.182;5.638;2023-04-06T09:11:06;9.90;99.90
51567;DHT22;37657;53.182;5.638;2023-04-06T09:13:43;10.00;99.90
51567;DHT22;37657;53.182;5.638;2023-04-06T09:16:12;10.10;99.90
51567;DHT22;37657;53.182;5.638;2023-04-06T09:18:38;10.20;99.90
51567;DHT22;37657;53.182;5.638;2023-04-06T09:21:05;10.20;99.90
51567;DHT22;37657;53.182;5.638;2023-04-06T09:23:31;10.20;99.90
51567;DHT22;37657;53.182;5.638;2023-04-06T09:26:23;10.30;99.90
51567;DHT22;37657;53.182;5.638;2023-04-06T09:28:58;10.30;99.90
51567;DHT22;37657;53.182;5.638;2023-04-06T09:31:31;10.40;99.90
51567;DHT22;37657;53.182;5.638;2023-04-06T09:34:00;10.40;99.90
51567;DHT22;37657;53.182;5.638;2023-04-06T09:36:33;10.40;99.90
51567;DHT22;37657;53.182;5.638;2023-04-06T09:39:02;10.30;99.90
51567;DHT22;37657;53.182;5.638;2023-04-06T09:41:30;10.30;99.90
51567;DHT22;37657;53.182;5.638;2023-04-06T09:44:06;10.20;99.90
51567;DHT22;37657;53.182;5.638;2023-04-06T09:46:37;10.30;99.90
51567;DHT22;37657;53.182;5.638;2023-04-06T09:49:05;10.20;99.90
51567;DHT22;37657;53.182;5.638;2023-04-06T09:51:43;10.20;99.90
51567;DHT22;37657;53.182;5.638;2023-04-06T09:54:11;10.20;99.90
51567;DHT22;37657;53.182;5.638;2023-04-06T09:57:03;10.30;99.90
51567;DHT22;37657;53.182;5.638;2023-04-06T09:59:44;10.30;99.90
51567;DHT22;37657;53.182;5.638;2023-04-06T10:03:07;10.50;99.90
51567;DHT22;37657;53.182;5.638;2023-04-06T10:05:18;10.50;99.90
51567;DHT22;37657;53.182;5.638;2023-04-06T10:07:45;10.70;99.90
51567;DHT22;37657;53.182;5.638;2023-04-06T10:10:12;10.70;99.90
51567;DHT22;37657;53.182;5.638;2023-04-06T10:12:40;10.80;99.90
51567;DHT22;37657;53.182;5.638;2023-04-06T10:15:06;10.90;99.90
51567;DHT22;37657;53.182;5.638;2023-04-06T10:17:32;10.90;99.90
51567;DHT22;37657;53.182;5.638;2023-04-06T10:20:10;10.90;99.90
51567;DHT22;37657;53.182;5.638;2023-04-06T10:22:49;11.00;99.90
51567;DHT22;37657;53.182;5.638;2023-04-06T10:25:32;10.90;99.90
51567;DHT22;37657;53.182;5.638;2023-04-06T10:28:11;11.00;99.90
51567;DHT22;37657;53.182;5.638;2023-04-06T10:30:42;11.00;99.90
51567;DHT22;37657;53.182;5.638;2023-04-06T10:33:19;11.00;99.90
51567;DHT22;37657;53.182;5.638;2023-04-06T10:35:45;11.00;99.90
51567;DHT22;37657;53.182;5.638;2023-04-06T10:38:11;11.10;99.90
51567;DHT22;37657;53.182;5.638;2023-04-06T10:40:40;11.10;99.90
51567;DHT22;37657;53.182;5.638;2023-04-06T10:43:18;11.10;99.90
51567;DHT22;37657;53.182;5.638;2023-04-06T10:45:44;11.20;99.90
51567;DHT22;37657;53.182;5.638;2023-04-06T10:48:17;11.40;99.90
51567;DHT22;37657;53.182;5.638;2023-04-06T10:50:51;11.40;99.90
51567;DHT22;37657;53.182;5.638;2023-04-06T10:53:24;11.50;99.90
51567;DHT22;37657;53.182;5.638;2023-04-06T10:55:50;11.70;99.90
51567;DHT22;37657;53.182;5.638;2023-04-06T10:58:16;11.70;99.90
51567;DHT22;37657;53.182;5.638;2023-04-06T11:00:47;11.70;99.90
51567;DHT22;37657;53.182;5.638;2023-04-06T11:03:13;11.70;99.90
51567;DHT22;37657;53.182;5.638;2023-04-06T11:05:42;11.60;99.90
51567;DHT22;37657;53.182;5.638;2023-04-06T11:08:08;11.70;99.90
51567;DHT22;37657;53.182;5.638;2023-04-06T11:10:34;11.80;99.90
51567;DHT22;37657;53.182;5.638;2023-04-06T11:12:59;11.70;99.90
51567;DHT22;37657;53.182;5.638;2023-04-06T11:15:25;11.80;99.90
51567;DHT22;37657;53.182;5.638;2023-04-06T11:17:51;11.90;99.90
51567;DHT22;37657;53.182;5.638;2023-04-06T11:20:16;11.90;99.90
51567;DHT22;37657;53.182;5.638;2023-04-06T11:22:51;11.90;99.90
51567;DHT22;37657;53.182;5.638;2023-04-06T11:25:17;11.90;99.90
51567;DHT22;37657;53.182;5.638;2023-04-06T11:27:43;11.80;99.90
51567;DHT22;37657;53.182;5.638;2023-04-06T11:30:09;11.80;99.90
51567;DHT22;37657;53.182;5.638;2023-04-06T11:32:45;11.80;99.90
51567;DHT22;37657;53.182;5.638;2023-04-06T11:35:21;11.80;99.90
51567;DHT22;37657;53.182;5.638;2023-04-06T11:37:51;11.70;99.90
51567;DHT22;37657;53.182;5.638;2023-04-06T11:40:23;11.80;99.90
51567;DHT22;37657;53.182;5.638;2023-04-06T11:42:56;11.80;99.90
51567;DHT22;37657;53.182;5.638;2023-04-06T11:45:22;11.80;99.90
51567;DHT22;37657;53.182;5.638;2023-04-06T11:47:59;11.90;99.90
51567;DHT22;37657;53.182;5.638;2023-04-06T11:50:24;12.00;99.90
51567;DHT22;37657;53.182;5.638;2023-04-06T11:52:58;11.90;99.90
51567;DHT22;37657;53.182;5.638;2023-04-06T11:55:25;11.90;99.90
51567;DHT22;37657;53.182;5.638;2023-04-06T11:57:51;11.90;99.90
51567;DHT22;37657;53.182;5.638;2023-04-06T12:00:17;12.00;99.90
51567;DHT22;37657;53.182;5.638;2023-04-06T12:02:46;11.90;99.90
51567;DHT22;37657;53.182;5.638;2023-04-06T12:05:11;11.90;99.90
51567;DHT22;37657;53.182;5.638;2023-04-06T12:07:37;11.80;99.90
51567;DHT22;37657;53.182;5.638;2023-04-06T12:10:04;11.70;99.90
51567;DHT22;37657;53.182;5.638;2023-04-06T12:12:30;11.60;99.90
51567;DHT22;37657;53.182;5.638;2023-04-06T12:14:56;11.50;99.90
51567;DHT22;37657;53.182;5.638;2023-04-06T12:17:22;11.50;99.90
51567;DHT22;37657;53.182;5.638;2023-04-06T12:19:47;11.40;99.90
51567;DHT22;37657;53.182;5.638;2023-04-06T12:22:14;11.40;99.90
51567;DHT22;37657;53.182;5.638;2023-04-06T12:24:39;11.40;99.90
51567;DHT22;37657;53.182;5.638;2023-04-06T12:27:05;11.30;99.90
51567;DHT22;37657;53.182;5.638;2023-04-06T12:29:31;11.30;99.90
51567;DHT22;37657;53.182;5.638;2023-04-06T12:31:56;11.20;99.90
51567;DHT22;37657;53.182;5.638;2023-04-06T12:34:22;11.20;99.90
51567;DHT22;37657;53.182;5.638;2023-04-06T12:36:47;11.10;99.90
51567;DHT22;37657;53.182;5.638;2023-04-06T12:39:13;11.10;99.90
51567;DHT22;37657;53.182;5.638;2023-04-06T12:41:38;11.10;99.90
51567;DHT22;37657;53.182;5.638;2023-04-06T12:44:07;11.00;99.90
51567;DHT22;37657;53.182;5.638;2023-04-06T12:46:32;10.90;99.90
51567;DHT22;37657;53.182;5.638;2023-04-06T12:48:58;10.70;99.90
51567;DHT22;37657;53.182;5.638;2023-04-06T12:51:27;10.70;99.90
51567;DHT22;37657;53.182;5.638;2023-04-06T12:53:53;10.60;99.90
51567;DHT22;37657;53.182;5.638;2023-04-06T12:56:19;10.60;99.90
51567;DHT22;37657;53.182;5.638;2023-04-06T12:58:46;10.60;99.90
51567;DHT22;37657;53.182;5.638;2023-04-06T13:01:12;10.50;99.90
51567;DHT22;37657;53.182;5.638;2023-04-06T13:03:39;10.50;99.90
51567;DHT22;37657;53.182;5.638;2023-04-06T13:06:05;10.40;99.90
51567;DHT22;37657;53.182;5.638;2023-04-06T13:08:30;10.40;99.90
51567;DHT22;37657;53.182;5.638;2023-04-06T13:10:56;10.40;99.90
51567;DHT22;37657;53.182;5.638;2023-04-06T13:13:26;10.40;99.90
51567;DHT22;37657;53.182;5.638;2023-04-06T13:15:53;10.30;99.90
51567;DHT22;37657;53.182;5.638;2023-04-06T13:18:19;10.30;99.90
51567;DHT22;37657;53.182;5.638;2023-04-06T13:20:46;10.20;99.90
51567;DHT22;37657;53.182;5.638;2023-04-06T13:23:12;10.20;99.90
51567;DHT22;37657;53.182;5.638;2023-04-06T13:25:37;10.10;99.90
51567;DHT22;37657;53.182;5.638;2023-04-06T13:28:03;10.10;99.90
51567;DHT22;37657;53.182;5.638;2023-04-06T13:30:28;10.00;99.90
51567;DHT22;37657;53.182;5.638;2023-04-06T13:32:54;9.90;99.90
51567;DHT22;37657;53.182;5.638;2023-04-06T13:35:20;9.80;99.90
51567;DHT22;37657;53.182;5.638;2023-04-06T13:37:45;9.80;99.90
51567;DHT22;37657;53.182;5.638;2023-04-06T13:40:11;9.70;99.90
51567;DHT22;37657;53.182;5.638;2023-04-06T13:42:37;9.70;99.90
51567;DHT22;37657;53.182;5.638;2023-04-06T13:45:06;9.60;99.90
51567;DHT22;37657;53.182;5.638;2023-04-06T13:47:32;9.60;99.90
51567;DHT22;37657;53.182;5.638;2023-04-06T13:49:58;9.50;99.90
51567;DHT22;37657;53.182;5.638;2023-04-06T13:52:23;9.50;99.90
51567;DHT22;37657;53.182;5.638;2023-04-06T13:54:49;9.50;99.90
51567;DHT22;37657;53.182;5.638;2023-04-06T13:57:15;9.40;99.90
51567;DHT22;37657;53.182;5.638;2023-04-06T13:59:41;9.40;99.90
51567;DHT22;37657;53.182;5.638;2023-04-06T14:02:08;9.40;99.90
51567;DHT22;37657;53.182;5.638;2023-04-06T14:04:35;9.40;99.90
51567;DHT22;37657;53.182;5.638;2023-04-06T14:07:01;9.40;99.90
51567;DHT22;37657;53.182;5.638;2023-04-06T14:09:28;9.30;99.90
51567;DHT22;37657;53.182;5.638;2023-04-06T14:11:54;9.30;99.90
51567;DHT22;37657;53.182;5.638;2023-04-06T14:14:20;9.30;99.90
51567;DHT22;37657;53.182;5.638;2023-04-06T14:16:46;9.10;99.90
51567;DHT22;37657;53.182;5.638;2023-04-06T14:19:14;9.20;99.90
51567;DHT22;37657;53.182;5.638;2023-04-06T14:21:41;9.20;99.90
51567;DHT22;37657;53.182;5.638;2023-04-06T14:24:07;9.10;99.90
51567;DHT22;37657;53.182;5.638;2023-04-06T14:26:37;9.10;99.90
51567;DHT22;37657;53.182;5.638;2023-04-06T14:29:04;9.00;99.90
51567;DHT22;37657;53.182;5.638;2023-04-06T14:31:30;9.00;99.90
51567;DHT22;37657;53.182;5.638;2023-04-06T14:33:56;9.00;99.90
51567;DHT22;37657;53.182;5.638;2023-04-06T14:36:22;9.00;99.90
51567;DHT22;37657;53.182;5.638;2023-04-06T14:38:47;9.00;99.90
51567;DHT22;37657;53.182;5.638;2023-04-06T14:41:17;9.00;99.90
51567;DHT22;37657;53.182;5.638;2023-04-06T14:43:43;9.00;99.90
51567;DHT22;37657;53.182;5.638;2023-04-06T14:46:09;9.00;99.90
51567;DHT22;37657;53.182;5.638;2023-04-06T14:48:35;9.00;99.90
51567;DHT22;37657;53.182;5.638;2023-04-06T14:51:01;9.10;99.90
51567;DHT22;37657;53.182;5.638;2023-04-06T14:53:29;9.10;99.90
51567;DHT22;37657;53.182;5.638;2023-04-06T14:55:56;9.00;99.90
51567;DHT22;37657;53.182;5.638;2023-04-06T14:58:22;9.00;99.90
51567;DHT22;37657;53.182;5.638;2023-04-06T15:00:48;9.00;99.90
51567;DHT22;37657;53.182;5.638;2023-04-06T15:03:14;9.00;99.90
51567;DHT22;37657;53.182;5.638;2023-04-06T15:05:40;9.00;99.90
51567;DHT22;37657;53.182;5.638;2023-04-06T15:08:06;9.00;99.90
51567;DHT22;37657;53.182;5.638;2023-04-06T15:10:34;9.00;99.90
51567;DHT22;37657;53.182;5.638;2023-04-06T15:13:00;9.00;99.90
51567;DHT22;37657;53.182;5.638;2023-04-06T15:15:26;9.00;99.90
51567;DHT22;37657;53.182;5.638;2023-04-06T15:17:51;8.90;99.90
51567;DHT22;37657;53.182;5.638;2023-04-06T15:20:17;9.00;99.90
51567;DHT22;37657;53.182;5.638;2023-04-06T15:22:43;8.90;99.90
51567;DHT22;37657;53.182;5.638;2023-04-06T15:25:09;8.90;99.90
51567;DHT22;37657;53.182;5.638;2023-04-06T15:27:35;8.80;99.90
51567;DHT22;37657;53.182;5.638;2023-04-06T15:30:00;8.90;99.90
51567;DHT22;37657;53.182;5.638;2023-04-06T15:32:26;8.90;99.90
51567;DHT22;37657;53.182;5.638;2023-04-06T15:34:57;8.80;99.90
51567;DHT22;37657;53.182;5.638;2023-04-06T15:37:23;8.80;99.90
51567;DHT22;37657;53.182;5.638;2023-04-06T15:39:49;8.90;99.90